Airfield :
LOGIN :

Register | Disclaimer

   EN    FR    IT 

 










Legend :    VFR   Marginal VFR   IFR   Intensive IFR   Very Intensive IFR
Visi :
Ceiling :
>= 8 km
>= 3000ft
5 to 8 km
1000 to 3000 ft
1500m to 5 km
500 to 1000 ft
800 to 1500m
200 to 500 ft
< 800m
< 200 ft
Symbols :   Thunderstorms  Fog  Heavy snow  Heavy precipitations  Wind > 20 kt
SIGMETs :     Misc.  Thunderstorms  Icing  Turbulence  Mountain Waves  Volcanic Ashes






- Airport Elevation : 1046 ft
- IATA code : NUE


EDDN - Nuremberg

CURRENT METAR :
  • 171250Z VRB02KT 3300 -SN FEW012 BKN033 M02/M04 Q1018 R28/19//95 TEMPO 6000 BKN012

EXPIRED METARs :
  • 171220Z VRB02KT 3500 -SN FEW012 BKN030 M02/M04 Q1018 R28/19//95 TEMPO 6000 BKN012
  • 171150Z VRB02KT 4000 -SN BKN037 M02/M04 Q1018 R28/19//95 TEMPO 6000 BKN012
  • 171120Z 10003KT 070V140 4000 -SN FEW015 BKN033 M02/M05 Q1018 R28/19//95 TEMPO 6000 BKN012
  • 171050Z VRB02KT 7000 -SN SCT015 BKN040 M02/M05 Q1018 R28/19//95 TEMPO 4000 BKN012
  • 171020Z 09004KT 070V130 9000 SCT013 BKN047 M02/M05 Q1018 R28/19//95 TEMPO BKN012

TAF TAF EDDN
Valid from the 17 at 12:00 until the 18 at 12:00 UTC


171100Z 1712/1812 15004KT 7000 SCT012 BKN020
TEMPO 1712/1716 4000 -SN BKN012
BECMG 1716/1718 4000 -SN SCT008 BKN012
TEMPO 1721/1806 2500 -SN BR BKN007
BECMG 1802/1804 28007KT
BECMG 1808/1810 7000



MET'MAP, your aeronautical weather chart ! - Copyright ORBIFLY December 2007 - Disclaimer

ORBIFLY MET'MAP TEAM :

Programming & Development : Alexandra Zaïnal
Concept & original design : Baudouin d'Aumeries
Assistance for programming : Marc-Olivier Méhu
Technical & hardware support : Manuel Goepfert

Contact : metmap@orbifly.com




SOURCES & CREDITS :

   NOAA